sensor_id;sensor_type;location;lat;lon;timestamp;P1;durP1;ratioP1;P2;durP2;ratioP2
49540;SDS011;35432;43.566;1.398;2023-03-23T00:00:51;4.05;;;0.90;;
49540;SDS011;35432;43.566;1.398;2023-03-23T00:03:16;3.53;;;0.80;;
49540;SDS011;35432;43.566;1.398;2023-03-23T00:05:42;4.43;;;1.00;;
49540;SDS011;35432;43.566;1.398;2023-03-23T00:08:14;3.35;;;0.90;;
49540;SDS011;35432;43.566;1.398;2023-03-23T00:10:40;4.40;;;1.17;;
49540;SDS011;35432;43.566;1.398;2023-03-23T00:13:06;5.63;;;1.10;;
49540;SDS011;35432;43.566;1.398;2023-03-23T00:15:31;4.80;;;1.00;;
49540;SDS011;35432;43.566;1.398;2023-03-23T00:17:58;6.22;;;1.10;;
49540;SDS011;35432;43.566;1.398;2023-03-23T00:20:29;3.65;;;0.90;;
49540;SDS011;35432;43.566;1.398;2023-03-23T00:23:04;4.78;;;1.08;;
49540;SDS011;35432;43.566;1.398;2023-03-23T00:25:30;4.17;;;0.93;;
49540;SDS011;35432;43.566;1.398;2023-03-23T00:27:55;7.60;;;1.00;;
49540;SDS011;35432;43.566;1.398;2023-03-23T00:30:21;4.53;;;0.82;;
49540;SDS011;35432;43.566;1.398;2023-03-23T00:32:47;3.87;;;1.10;;
49540;SDS011;35432;43.566;1.398;2023-03-23T00:35:13;3.83;;;0.93;;
49540;SDS011;35432;43.566;1.398;2023-03-23T00:37:38;3.90;;;1.00;;
49540;SDS011;35432;43.566;1.398;2023-03-23T00:40:04;4.50;;;0.90;;
49540;SDS011;35432;43.566;1.398;2023-03-23T00:42:34;6.18;;;1.27;;
49540;SDS011;35432;43.566;1.398;2023-03-23T00:45:02;5.75;;;1.02;;
49540;SDS011;35432;43.566;1.398;2023-03-23T00:47:35;5.72;;;0.98;;
49540;SDS011;35432;43.566;1.398;2023-03-23T00:50:01;4.07;;;1.00;;
49540;SDS011;35432;43.566;1.398;2023-03-23T00:52:27;7.40;;;1.60;;
49540;SDS011;35432;43.566;1.398;2023-03-23T00:54:53;6.60;;;1.20;;
49540;SDS011;35432;43.566;1.398;2023-03-23T00:57:18;5.07;;;1.07;;
49540;SDS011;35432;43.566;1.398;2023-03-23T00:59:44;5.07;;;1.23;;
49540;SDS011;35432;43.566;1.398;2023-03-23T01:02:10;4.78;;;1.20;;
49540;SDS011;35432;43.566;1.398;2023-03-23T01:04:37;3.73;;;0.90;;
49540;SDS011;35432;43.566;1.398;2023-03-23T01:07:03;5.75;;;1.10;;
49540;SDS011;35432;43.566;1.398;2023-03-23T01:09:29;4.17;;;1.13;;
49540;SDS011;35432;43.566;1.398;2023-03-23T01:11:55;5.32;;;1.35;;
49540;SDS011;35432;43.566;1.398;2023-03-23T01:14:21;5.97;;;1.30;;
49540;SDS011;35432;43.566;1.398;2023-03-23T01:16:46;4.30;;;1.27;;
49540;SDS011;35432;43.566;1.398;2023-03-23T01:19:12;5.03;;;1.23;;
49540;SDS011;35432;43.566;1.398;2023-03-23T01:21:38;5.72;;;1.40;;
49540;SDS011;35432;43.566;1.398;2023-03-23T01:24:04;4.03;;;1.10;;
49540;SDS011;35432;43.566;1.398;2023-03-23T01:26:30;6.67;;;1.57;;
49540;SDS011;35432;43.566;1.398;2023-03-23T01:28:55;5.22;;;1.30;;
49540;SDS011;35432;43.566;1.398;2023-03-23T01:31:22;5.43;;;1.57;;
49540;SDS011;35432;43.566;1.398;2023-03-23T01:33:51;5.70;;;1.67;;
49540;SDS011;35432;43.566;1.398;2023-03-23T01:36:18;6.18;;;1.73;;
49540;SDS011;35432;43.566;1.398;2023-03-23T01:38:46;10.67;;;2.83;;
49540;SDS011;35432;43.566;1.398;2023-03-23T01:41:12;5.72;;;2.03;;
49540;SDS011;35432;43.566;1.398;2023-03-23T01:46:19;7.88;;;1.90;;
49540;SDS011;35432;43.566;1.398;2023-03-23T01:48:47;7.60;;;2.55;;
49540;SDS011;35432;43.566;1.398;2023-03-23T01:51:15;8.23;;;2.50;;
49540;SDS011;35432;43.566;1.398;2023-03-23T01:53:43;7.00;;;2.65;;
49540;SDS011;35432;43.566;1.398;2023-03-23T01:56:14;7.13;;;2.42;;
49540;SDS011;35432;43.566;1.398;2023-03-23T01:58:45;7.13;;;2.90;;
49540;SDS011;35432;43.566;1.398;2023-03-23T02:01:12;8.00;;;2.60;;
49540;SDS011;35432;43.566;1.398;2023-03-23T02:03:41;9.35;;;2.70;;
49540;SDS011;35432;43.566;1.398;2023-03-23T02:06:09;6.72;;;2.95;;
49540;SDS011;35432;43.566;1.398;2023-03-23T02:08:34;9.47;;;3.47;;
49540;SDS011;35432;43.566;1.398;2023-03-23T02:11:00;11.77;;;4.40;;
49540;SDS011;35432;43.566;1.398;2023-03-23T02:13:26;8.10;;;3.60;;
49540;SDS011;35432;43.566;1.398;2023-03-23T02:16:02;8.63;;;3.40;;
49540;SDS011;35432;43.566;1.398;2023-03-23T02:18:38;7.10;;;3.63;;
49540;SDS011;35432;43.566;1.398;2023-03-23T02:24:02;10.90;;;3.70;;
49540;SDS011;35432;43.566;1.398;2023-03-23T02:26:52;10.55;;;3.83;;
49540;SDS011;35432;43.566;1.398;2023-03-23T02:35:35;23.38;;;5.13;;
49540;SDS011;35432;43.566;1.398;2023-03-23T02:37:48;8.85;;;4.30;;
49540;SDS011;35432;43.566;1.398;2023-03-23T02:40:21;12.07;;;5.07;;
49540;SDS011;35432;43.566;1.398;2023-03-23T02:42:52;10.30;;;4.87;;
49540;SDS011;35432;43.566;1.398;2023-03-23T02:45:20;10.40;;;5.53;;
49540;SDS011;35432;43.566;1.398;2023-03-23T02:47:48;9.63;;;5.20;;
49540;SDS011;35432;43.566;1.398;2023-03-23T02:50:16;10.52;;;5.00;;
49540;SDS011;35432;43.566;1.398;2023-03-23T02:52:44;11.55;;;5.10;;
49540;SDS011;35432;43.566;1.398;2023-03-23T02:55:12;14.63;;;6.40;;
49540;SDS011;35432;43.566;1.398;2023-03-23T02:57:39;14.88;;;6.00;;
49540;SDS011;35432;43.566;1.398;2023-03-23T03:00:06;15.25;;;5.97;;
49540;SDS011;35432;43.566;1.398;2023-03-23T03:02:43;12.25;;;6.03;;
49540;SDS011;35432;43.566;1.398;2023-03-23T03:11:09;12.32;;;5.25;;
49540;SDS011;35432;43.566;1.398;2023-03-23T03:13:41;11.15;;;5.63;;
49540;SDS011;35432;43.566;1.398;2023-03-23T03:19:19;12.67;;;5.40;;
49540;SDS011;35432;43.566;1.398;2023-03-23T03:21:45;16.20;;;6.80;;
49540;SDS011;35432;43.566;1.398;2023-03-23T03:24:14;13.90;;;6.07;;
49540;SDS011;35432;43.566;1.398;2023-03-23T03:26:46;12.20;;;6.53;;
49540;SDS011;35432;43.566;1.398;2023-03-23T03:29:15;13.98;;;6.22;;
49540;SDS011;35432;43.566;1.398;2023-03-23T03:31:43;13.38;;;5.97;;
49540;SDS011;35432;43.566;1.398;2023-03-23T03:34:11;12.00;;;4.80;;
49540;SDS011;35432;43.566;1.398;2023-03-23T03:36:37;14.25;;;6.25;;
49540;SDS011;35432;43.566;1.398;2023-03-23T03:39:06;14.23;;;5.70;;
49540;SDS011;35432;43.566;1.398;2023-03-23T03:41:34;15.25;;;6.72;;
49540;SDS011;35432;43.566;1.398;2023-03-23T03:44:01;14.90;;;5.43;;
49540;SDS011;35432;43.566;1.398;2023-03-23T03:46:27;12.85;;;5.63;;
49540;SDS011;35432;43.566;1.398;2023-03-23T03:48:55;12.60;;;5.80;;
49540;SDS011;35432;43.566;1.398;2023-03-23T03:51:22;18.97;;;6.63;;
49540;SDS011;35432;43.566;1.398;2023-03-23T03:53:48;13.43;;;6.18;;
49540;SDS011;35432;43.566;1.398;2023-03-23T03:56:14;17.60;;;7.28;;
49540;SDS011;35432;43.566;1.398;2023-03-23T03:58:39;15.90;;;6.17;;
49540;SDS011;35432;43.566;1.398;2023-03-23T04:01:07;12.32;;;5.93;;
49540;SDS011;35432;43.566;1.398;2023-03-23T04:03:35;13.60;;;6.13;;
49540;SDS011;35432;43.566;1.398;2023-03-23T04:06:01;18.40;;;5.73;;
49540;SDS011;35432;43.566;1.398;2023-03-23T04:08:27;15.13;;;5.75;;
49540;SDS011;35432;43.566;1.398;2023-03-23T04:10:53;15.90;;;6.67;;
49540;SDS011;35432;43.566;1.398;2023-03-23T04:13:19;14.63;;;6.65;;
49540;SDS011;35432;43.566;1.398;2023-03-23T04:15:44;13.85;;;5.93;;
49540;SDS011;35432;43.566;1.398;2023-03-23T04:18:11;11.60;;;6.07;;
49540;SDS011;35432;43.566;1.398;2023-03-23T04:20:37;13.90;;;6.40;;
49540;SDS011;35432;43.566;1.398;2023-03-23T04:23:03;11.65;;;6.20;;
49540;SDS011;35432;43.566;1.398;2023-03-23T04:25:28;15.80;;;7.10;;
49540;SDS011;35432;43.566;1.398;2023-03-23T04:27:57;12.98;;;5.93;;
49540;SDS011;35432;43.566;1.398;2023-03-23T04:30:26;13.50;;;6.38;;
49540;SDS011;35432;43.566;1.398;2023-03-23T04:32:54;14.73;;;7.13;;
49540;SDS011;35432;43.566;1.398;2023-03-23T04:35:21;13.38;;;7.03;;
49540;SDS011;35432;43.566;1.398;2023-03-23T04:37:49;17.90;;;9.60;;
49540;SDS011;35432;43.566;1.398;2023-03-23T04:40:15;16.35;;;8.55;;
49540;SDS011;35432;43.566;1.398;2023-03-23T04:42:44;21.73;;;8.53;;
49540;SDS011;35432;43.566;1.398;2023-03-23T04:45:14;21.80;;;8.45;;
49540;SDS011;35432;43.566;1.398;2023-03-23T04:47:46;19.02;;;8.10;;
49540;SDS011;35432;43.566;1.398;2023-03-23T04:50:18;17.23;;;9.38;;
49540;SDS011;35432;43.566;1.398;2023-03-23T04:52:45;23.05;;;9.70;;
49540;SDS011;35432;43.566;1.398;2023-03-23T04:55:11;16.17;;;8.63;;
49540;SDS011;35432;43.566;1.398;2023-03-23T04:57:37;20.20;;;9.45;;
49540;SDS011;35432;43.566;1.398;2023-03-23T05:00:03;24.20;;;10.95;;
49540;SDS011;35432;43.566;1.398;2023-03-23T05:02:36;21.03;;;9.60;;
49540;SDS011;35432;43.566;1.398;2023-03-23T05:05:04;21.05;;;10.55;;
49540;SDS011;35432;43.566;1.398;2023-03-23T05:07:31;26.48;;;10.80;;
49540;SDS011;35432;43.566;1.398;2023-03-23T05:09:56;19.47;;;9.70;;
49540;SDS011;35432;43.566;1.398;2023-03-23T05:12:22;21.42;;;9.43;;
49540;SDS011;35432;43.566;1.398;2023-03-23T05:14:47;22.83;;;10.20;;
49540;SDS011;35432;43.566;1.398;2023-03-23T05:17:13;18.90;;;10.30;;
49540;SDS011;35432;43.566;1.398;2023-03-23T05:19:42;18.27;;;8.90;;
49540;SDS011;35432;43.566;1.398;2023-03-23T05:22:09;20.23;;;9.65;;
49540;SDS011;35432;43.566;1.398;2023-03-23T05:24:37;27.20;;;12.68;;
49540;SDS011;35432;43.566;1.398;2023-03-23T05:27:03;21.40;;;9.57;;
49540;SDS011;35432;43.566;1.398;2023-03-23T05:29:28;21.27;;;9.57;;
49540;SDS011;35432;43.566;1.398;2023-03-23T05:31:55;22.88;;;10.45;;
49540;SDS011;35432;43.566;1.398;2023-03-23T05:34:25;22.33;;;10.57;;
49540;SDS011;35432;43.566;1.398;2023-03-23T05:36:51;21.13;;;9.77;;
49540;SDS011;35432;43.566;1.398;2023-03-23T05:39:18;24.30;;;10.87;;
49540;SDS011;35432;43.566;1.398;2023-03-23T05:41:44;20.30;;;11.02;;
49540;SDS011;35432;43.566;1.398;2023-03-23T05:44:09;26.55;;;11.02;;
49540;SDS011;35432;43.566;1.398;2023-03-23T05:46:35;23.37;;;10.07;;
49540;SDS011;35432;43.566;1.398;2023-03-23T05:49:00;26.00;;;11.77;;
49540;SDS011;35432;43.566;1.398;2023-03-23T05:51:27;20.33;;;10.02;;
49540;SDS011;35432;43.566;1.398;2023-03-23T05:53:52;21.10;;;10.30;;
49540;SDS011;35432;43.566;1.398;2023-03-23T05:56:17;25.48;;;11.48;;
49540;SDS011;35432;43.566;1.398;2023-03-23T05:58:43;21.40;;;9.83;;
49540;SDS011;35432;43.566;1.398;2023-03-23T06:01:09;23.23;;;10.53;;
49540;SDS011;35432;43.566;1.398;2023-03-23T06:03:37;19.98;;;10.27;;
49540;SDS011;35432;43.566;1.398;2023-03-23T06:06:03;22.07;;;10.70;;
49540;SDS011;35432;43.566;1.398;2023-03-23T06:08:29;24.08;;;11.35;;
49540;SDS011;35432;43.566;1.398;2023-03-23T06:10:55;23.48;;;12.30;;
49540;SDS011;35432;43.566;1.398;2023-03-23T06:13:21;23.17;;;11.33;;
49540;SDS011;35432;43.566;1.398;2023-03-23T06:15:48;25.30;;;12.95;;
49540;SDS011;35432;43.566;1.398;2023-03-23T06:18:14;21.63;;;11.02;;
49540;SDS011;35432;43.566;1.398;2023-03-23T06:20:40;24.33;;;10.77;;
49540;SDS011;35432;43.566;1.398;2023-03-23T06:23:05;22.83;;;10.07;;
49540;SDS011;35432;43.566;1.398;2023-03-23T06:25:31;20.20;;;10.45;;
49540;SDS011;35432;43.566;1.398;2023-03-23T06:27:57;18.60;;;10.87;;
49540;SDS011;35432;43.566;1.398;2023-03-23T06:30:23;25.08;;;12.60;;
49540;SDS011;35432;43.566;1.398;2023-03-23T06:32:49;27.83;;;11.30;;
49540;SDS011;35432;43.566;1.398;2023-03-23T06:35:15;23.88;;;11.15;;
49540;SDS011;35432;43.566;1.398;2023-03-23T06:37:41;21.77;;;11.70;;
49540;SDS011;35432;43.566;1.398;2023-03-23T06:40:07;23.67;;;11.60;;
49540;SDS011;35432;43.566;1.398;2023-03-23T06:42:33;21.50;;;11.68;;
49540;SDS011;35432;43.566;1.398;2023-03-23T06:44:59;22.07;;;10.60;;
49540;SDS011;35432;43.566;1.398;2023-03-23T06:47:26;21.05;;;10.38;;
49540;SDS011;35432;43.566;1.398;2023-03-23T06:49:54;24.23;;;11.40;;
49540;SDS011;35432;43.566;1.398;2023-03-23T06:52:21;20.88;;;10.60;;
49540;SDS011;35432;43.566;1.398;2023-03-23T06:54:47;28.67;;;10.57;;
49540;SDS011;35432;43.566;1.398;2023-03-23T06:57:13;23.60;;;11.03;;
49540;SDS011;35432;43.566;1.398;2023-03-23T06:59:39;25.02;;;10.85;;
49540;SDS011;35432;43.566;1.398;2023-03-23T07:02:05;21.57;;;9.40;;
49540;SDS011;35432;43.566;1.398;2023-03-23T07:04:31;23.02;;;10.50;;
49540;SDS011;35432;43.566;1.398;2023-03-23T07:06:57;23.83;;;10.33;;
49540;SDS011;35432;43.566;1.398;2023-03-23T07:09:22;24.00;;;10.43;;
49540;SDS011;35432;43.566;1.398;2023-03-23T07:11:48;22.20;;;10.87;;
49540;SDS011;35432;43.566;1.398;2023-03-23T07:14:13;19.07;;;9.83;;
49540;SDS011;35432;43.566;1.398;2023-03-23T07:16:39;27.52;;;10.70;;
49540;SDS011;35432;43.566;1.398;2023-03-23T07:19:05;23.57;;;10.20;;
49540;SDS011;35432;43.566;1.398;2023-03-23T07:21:31;25.10;;;12.67;;
49540;SDS011;35432;43.566;1.398;2023-03-23T07:23:56;23.20;;;11.65;;
49540;SDS011;35432;43.566;1.398;2023-03-23T07:26:21;22.80;;;10.80;;
49540;SDS011;35432;43.566;1.398;2023-03-23T07:28:47;23.87;;;10.20;;
49540;SDS011;35432;43.566;1.398;2023-03-23T07:31:12;23.63;;;10.48;;
49540;SDS011;35432;43.566;1.398;2023-03-23T07:33:38;21.23;;;10.40;;
49540;SDS011;35432;43.566;1.398;2023-03-23T07:36:03;23.47;;;9.70;;
49540;SDS011;35432;43.566;1.398;2023-03-23T07:38:30;22.08;;;9.90;;
49540;SDS011;35432;43.566;1.398;2023-03-23T07:40:55;22.30;;;11.10;;
49540;SDS011;35432;43.566;1.398;2023-03-23T07:43:21;25.65;;;12.07;;
49540;SDS011;35432;43.566;1.398;2023-03-23T07:45:47;22.90;;;11.07;;
49540;SDS011;35432;43.566;1.398;2023-03-23T07:48:13;20.48;;;10.07;;
49540;SDS011;35432;43.566;1.398;2023-03-23T07:50:39;24.97;;;11.40;;
49540;SDS011;35432;43.566;1.398;2023-03-23T07:53:05;24.35;;;11.10;;
49540;SDS011;35432;43.566;1.398;2023-03-23T07:55:30;20.00;;;9.70;;
49540;SDS011;35432;43.566;1.398;2023-03-23T07:57:56;21.63;;;10.20;;
49540;SDS011;35432;43.566;1.398;2023-03-23T08:00:22;24.20;;;9.57;;
49540;SDS011;35432;43.566;1.398;2023-03-23T08:02:50;24.40;;;10.10;;
49540;SDS011;35432;43.566;1.398;2023-03-23T08:05:18;24.08;;;11.32;;
49540;SDS011;35432;43.566;1.398;2023-03-23T08:07:45;20.33;;;9.48;;
49540;SDS011;35432;43.566;1.398;2023-03-23T08:10:12;18.10;;;9.95;;
49540;SDS011;35432;43.566;1.398;2023-03-23T08:12:40;18.05;;;9.45;;
49540;SDS011;35432;43.566;1.398;2023-03-23T08:15:07;16.13;;;9.33;;
49540;SDS011;35432;43.566;1.398;2023-03-23T08:17:33;26.60;;;10.82;;
49540;SDS011;35432;43.566;1.398;2023-03-23T08:20:00;19.38;;;9.10;;
49540;SDS011;35432;43.566;1.398;2023-03-23T08:22:26;18.63;;;9.30;;
49540;SDS011;35432;43.566;1.398;2023-03-23T08:24:53;18.43;;;8.27;;
49540;SDS011;35432;43.566;1.398;2023-03-23T08:27:19;19.13;;;8.35;;
49540;SDS011;35432;43.566;1.398;2023-03-23T08:29:45;16.77;;;7.97;;
49540;SDS011;35432;43.566;1.398;2023-03-23T08:32:11;18.63;;;9.32;;
49540;SDS011;35432;43.566;1.398;2023-03-23T08:34:37;17.92;;;9.18;;
49540;SDS011;35432;43.566;1.398;2023-03-23T08:37:03;15.80;;;7.37;;
49540;SDS011;35432;43.566;1.398;2023-03-23T08:39:29;16.02;;;7.15;;
49540;SDS011;35432;43.566;1.398;2023-03-23T08:41:55;15.98;;;7.90;;
49540;SDS011;35432;43.566;1.398;2023-03-23T08:44:21;17.63;;;8.20;;
49540;SDS011;35432;43.566;1.398;2023-03-23T08:46:47;16.53;;;7.07;;
49540;SDS011;35432;43.566;1.398;2023-03-23T08:49:12;15.97;;;8.97;;
49540;SDS011;35432;43.566;1.398;2023-03-23T08:51:38;15.90;;;7.43;;
49540;SDS011;35432;43.566;1.398;2023-03-23T08:54:04;16.52;;;7.63;;
49540;SDS011;35432;43.566;1.398;2023-03-23T08:56:30;14.07;;;7.23;;
49540;SDS011;35432;43.566;1.398;2023-03-23T08:58:56;11.60;;;6.30;;
49540;SDS011;35432;43.566;1.398;2023-03-23T09:01:21;15.20;;;6.37;;
49540;SDS011;35432;43.566;1.398;2023-03-23T09:03:47;16.03;;;7.60;;
49540;SDS011;35432;43.566;1.398;2023-03-23T09:06:13;12.10;;;6.55;;
49540;SDS011;35432;43.566;1.398;2023-03-23T09:08:38;14.73;;;7.07;;
49540;SDS011;35432;43.566;1.398;2023-03-23T09:11:05;19.07;;;8.67;;
49540;SDS011;35432;43.566;1.398;2023-03-23T09:13:36;15.50;;;7.93;;
49540;SDS011;35432;43.566;1.398;2023-03-23T09:16:03;15.15;;;7.13;;
49540;SDS011;35432;43.566;1.398;2023-03-23T09:18:30;16.70;;;7.55;;
49540;SDS011;35432;43.566;1.398;2023-03-23T09:20:57;14.60;;;7.18;;
49540;SDS011;35432;43.566;1.398;2023-03-23T09:23:24;12.45;;;6.65;;
49540;SDS011;35432;43.566;1.398;2023-03-23T09:25:50;14.77;;;6.83;;
49540;SDS011;35432;43.566;1.398;2023-03-23T09:28:16;11.05;;;5.88;;
49540;SDS011;35432;43.566;1.398;2023-03-23T09:30:42;14.52;;;7.53;;
49540;SDS011;35432;43.566;1.398;2023-03-23T09:33:09;11.90;;;6.40;;
49540;SDS011;35432;43.566;1.398;2023-03-23T09:35:35;16.30;;;6.70;;
49540;SDS011;35432;43.566;1.398;2023-03-23T09:38:02;12.60;;;6.10;;
49540;SDS011;35432;43.566;1.398;2023-03-23T09:40:50;13.52;;;6.32;;
49540;SDS011;35432;43.566;1.398;2023-03-23T09:48:37;14.27;;;6.32;;
49540;SDS011;35432;43.566;1.398;2023-03-23T09:51:14;13.07;;;5.60;;
49540;SDS011;35432;43.566;1.398;2023-03-23T09:53:59;16.17;;;7.17;;
49540;SDS011;35432;43.566;1.398;2023-03-23T09:56:30;14.35;;;6.30;;
49540;SDS011;35432;43.566;1.398;2023-03-23T10:01:36;13.65;;;6.32;;
49540;SDS011;35432;43.566;1.398;2023-03-23T10:06:58;10.10;;;5.50;;
49540;SDS011;35432;43.566;1.398;2023-03-23T10:09:25;13.35;;;5.70;;
49540;SDS011;35432;43.566;1.398;2023-03-23T10:12:07;12.10;;;6.15;;
49540;SDS011;35432;43.566;1.398;2023-03-23T10:14:39;13.40;;;6.05;;
49540;SDS011;35432;43.566;1.398;2023-03-23T10:17:17;12.07;;;5.90;;
49540;SDS011;35432;43.566;1.398;2023-03-23T10:22:41;11.27;;;5.38;;
49540;SDS011;35432;43.566;1.398;2023-03-23T10:27:49;12.10;;;5.50;;
49540;SDS011;35432;43.566;1.398;2023-03-23T10:30:24;10.25;;;5.25;;
49540;SDS011;35432;43.566;1.398;2023-03-23T10:32:58;10.43;;;4.70;;
49540;SDS011;35432;43.566;1.398;2023-03-23T10:35:30;10.13;;;4.60;;
49540;SDS011;35432;43.566;1.398;2023-03-23T10:38:05;11.73;;;4.95;;
49540;SDS011;35432;43.566;1.398;2023-03-23T10:40:43;10.88;;;4.75;;
49540;SDS011;35432;43.566;1.398;2023-03-23T10:43:12;10.07;;;4.70;;
49540;SDS011;35432;43.566;1.398;2023-03-23T10:45:38;9.60;;;4.70;;
49540;SDS011;35432;43.566;1.398;2023-03-23T10:48:16;9.77;;;4.70;;
49540;SDS011;35432;43.566;1.398;2023-03-23T10:50:48;10.93;;;4.97;;
49540;SDS011;35432;43.566;1.398;2023-03-23T10:53:19;11.85;;;4.90;;
49540;SDS011;35432;43.566;1.398;2023-03-23T10:55:48;9.10;;;5.10;;
49540;SDS011;35432;43.566;1.398;2023-03-23T10:58:27;9.50;;;4.37;;
49540;SDS011;35432;43.566;1.398;2023-03-23T11:00:55;9.52;;;4.75;;
49540;SDS011;35432;43.566;1.398;2023-03-23T11:05:54;9.88;;;4.80;;
49540;SDS011;35432;43.566;1.398;2023-03-23T11:08:23;12.18;;;5.32;;
49540;SDS011;35432;43.566;1.398;2023-03-23T11:13:32;13.73;;;5.22;;
49540;SDS011;35432;43.566;1.398;2023-03-23T11:15:59;8.85;;;4.72;;
49540;SDS011;35432;43.566;1.398;2023-03-23T11:18:35;10.93;;;4.80;;
49540;SDS011;35432;43.566;1.398;2023-03-23T11:21:05;10.63;;;4.85;;
49540;SDS011;35432;43.566;1.398;2023-03-23T11:23:37;13.27;;;5.53;;
49540;SDS011;35432;43.566;1.398;2023-03-23T11:29:01;12.65;;;6.63;;
49540;SDS011;35432;43.566;1.398;2023-03-23T11:31:36;20.48;;;9.45;;
49540;SDS011;35432;43.566;1.398;2023-03-23T11:34:10;15.13;;;6.43;;
49540;SDS011;35432;43.566;1.398;2023-03-23T11:36:41;11.63;;;5.60;;
49540;SDS011;35432;43.566;1.398;2023-03-23T11:39:32;9.40;;;5.82;;
49540;SDS011;35432;43.566;1.398;2023-03-23T11:42:00;13.10;;;6.43;;
49540;SDS011;35432;43.566;1.398;2023-03-23T11:44:32;9.93;;;4.82;;
49540;SDS011;35432;43.566;1.398;2023-03-23T11:49:46;8.30;;;4.83;;
49540;SDS011;35432;43.566;1.398;2023-03-23T11:55:23;10.13;;;5.10;;
49540;SDS011;35432;43.566;1.398;2023-03-23T11:57:52;10.48;;;4.75;;
49540;SDS011;35432;43.566;1.398;2023-03-23T12:00:21;11.15;;;5.03;;
49540;SDS011;35432;43.566;1.398;2023-03-23T12:21:32;10.00;;;5.35;;
49540;SDS011;35432;43.566;1.398;2023-03-23T12:26:30;12.43;;;5.90;;
49540;SDS011;35432;43.566;1.398;2023-03-23T12:34:48;8.87;;;5.20;;
49540;SDS011;35432;43.566;1.398;2023-03-23T12:47:47;12.57;;;5.40;;
49540;SDS011;35432;43.566;1.398;2023-03-23T12:59:03;11.82;;;5.28;;
49540;SDS011;35432;43.566;1.398;2023-03-23T13:02:13;11.43;;;5.35;;
49540;SDS011;35432;43.566;1.398;2023-03-23T13:04:41;12.57;;;6.03;;
49540;SDS011;35432;43.566;1.398;2023-03-23T13:07:12;10.23;;;5.28;;
49540;SDS011;35432;43.566;1.398;2023-03-23T13:09:48;9.10;;;5.13;;
49540;SDS011;35432;43.566;1.398;2023-03-23T13:12:19;11.52;;;5.68;;
49540;SDS011;35432;43.566;1.398;2023-03-23T13:25:22;13.55;;;5.60;;
49540;SDS011;35432;43.566;1.398;2023-03-23T13:27:57;11.15;;;5.03;;
49540;SDS011;35432;43.566;1.398;2023-03-23T13:30:24;12.40;;;5.10;;
49540;SDS011;35432;43.566;1.398;2023-03-23T13:32:50;11.10;;;5.10;;
49540;SDS011;35432;43.566;1.398;2023-03-23T13:35:18;9.93;;;5.40;;
49540;SDS011;35432;43.566;1.398;2023-03-23T13:37:48;12.40;;;5.50;;
49540;SDS011;35432;43.566;1.398;2023-03-23T13:42:54;9.93;;;5.10;;
49540;SDS011;35432;43.566;1.398;2023-03-23T13:48:39;11.55;;;5.10;;
49540;SDS011;35432;43.566;1.398;2023-03-23T13:50:48;11.13;;;5.18;;
49540;SDS011;35432;43.566;1.398;2023-03-23T13:53:29;8.95;;;4.60;;
49540;SDS011;35432;43.566;1.398;2023-03-23T13:56:06;9.70;;;5.03;;
49540;SDS011;35432;43.566;1.398;2023-03-23T13:58:49;13.80;;;6.47;;
49540;SDS011;35432;43.566;1.398;2023-03-23T14:01:32;14.70;;;5.97;;
49540;SDS011;35432;43.566;1.398;2023-03-23T14:04:00;12.77;;;6.18;;
49540;SDS011;35432;43.566;1.398;2023-03-23T14:06:33;11.88;;;5.22;;
49540;SDS011;35432;43.566;1.398;2023-03-23T14:09:07;10.17;;;5.37;;
49540;SDS011;35432;43.566;1.398;2023-03-23T14:11:44;15.00;;;5.80;;
49540;SDS011;35432;43.566;1.398;2023-03-23T14:14:26;15.93;;;5.07;;
49540;SDS011;35432;43.566;1.398;2023-03-23T14:17:05;13.07;;;5.80;;
49540;SDS011;35432;43.566;1.398;2023-03-23T14:20:04;10.18;;;5.07;;
49540;SDS011;35432;43.566;1.398;2023-03-23T14:22:35;11.93;;;5.23;;
49540;SDS011;35432;43.566;1.398;2023-03-23T14:25:13;14.38;;;5.30;;
49540;SDS011;35432;43.566;1.398;2023-03-23T14:27:42;14.85;;;6.15;;
49540;SDS011;35432;43.566;1.398;2023-03-23T14:30:18;11.10;;;5.85;;
49540;SDS011;35432;43.566;1.398;2023-03-23T14:32:45;9.43;;;5.00;;
49540;SDS011;35432;43.566;1.398;2023-03-23T14:37:43;11.88;;;5.40;;
49540;SDS011;35432;43.566;1.398;2023-03-23T14:40:13;13.30;;;5.93;;
49540;SDS011;35432;43.566;1.398;2023-03-23T14:42:41;12.85;;;6.75;;
49540;SDS011;35432;43.566;1.398;2023-03-23T14:45:10;15.45;;;6.97;;
49540;SDS011;35432;43.566;1.398;2023-03-23T14:47:40;14.27;;;6.35;;
49540;SDS011;35432;43.566;1.398;2023-03-23T14:50:49;12.60;;;5.85;;
49540;SDS011;35432;43.566;1.398;2023-03-23T14:53:09;14.77;;;6.63;;
49540;SDS011;35432;43.566;1.398;2023-03-23T14:55:42;12.27;;;6.68;;
49540;SDS011;35432;43.566;1.398;2023-03-23T14:58:08;14.10;;;6.43;;
49540;SDS011;35432;43.566;1.398;2023-03-23T15:00:39;12.07;;;6.00;;
49540;SDS011;35432;43.566;1.398;2023-03-23T15:03:10;13.95;;;6.95;;
49540;SDS011;35432;43.566;1.398;2023-03-23T15:05:41;14.73;;;7.10;;
49540;SDS011;35432;43.566;1.398;2023-03-23T15:08:24;13.18;;;6.75;;
49540;SDS011;35432;43.566;1.398;2023-03-23T15:11:02;14.93;;;7.07;;
49540;SDS011;35432;43.566;1.398;2023-03-23T15:13:31;15.07;;;6.70;;
49540;SDS011;35432;43.566;1.398;2023-03-23T15:16:11;14.02;;;7.13;;
49540;SDS011;35432;43.566;1.398;2023-03-23T15:18:53;14.83;;;6.60;;
49540;SDS011;35432;43.566;1.398;2023-03-23T15:21:28;15.18;;;7.05;;
49540;SDS011;35432;43.566;1.398;2023-03-23T15:23:56;13.48;;;6.43;;
49540;SDS011;35432;43.566;1.398;2023-03-23T15:26:27;13.85;;;7.28;;
49540;SDS011;35432;43.566;1.398;2023-03-23T15:29:31;13.98;;;7.00;;
49540;SDS011;35432;43.566;1.398;2023-03-23T15:31:50;16.30;;;6.80;;
49540;SDS011;35432;43.566;1.398;2023-03-23T15:34:20;15.95;;;7.35;;
49540;SDS011;35432;43.566;1.398;2023-03-23T15:36:51;15.52;;;7.07;;
49540;SDS011;35432;43.566;1.398;2023-03-23T15:39:20;16.23;;;7.07;;
49540;SDS011;35432;43.566;1.398;2023-03-23T15:41:47;12.73;;;6.13;;
49540;SDS011;35432;43.566;1.398;2023-03-23T15:44:27;13.07;;;6.60;;
49540;SDS011;35432;43.566;1.398;2023-03-23T15:47:12;16.80;;;5.75;;
49540;SDS011;35432;43.566;1.398;2023-03-23T15:49:39;18.45;;;6.82;;
49540;SDS011;35432;43.566;1.398;2023-03-23T15:52:06;12.47;;;6.20;;
49540;SDS011;35432;43.566;1.398;2023-03-23T15:54:34;11.02;;;5.80;;
49540;SDS011;35432;43.566;1.398;2023-03-23T15:56:59;16.50;;;5.73;;
49540;SDS011;35432;43.566;1.398;2023-03-23T15:59:25;14.30;;;5.32;;
49540;SDS011;35432;43.566;1.398;2023-03-23T16:01:51;11.97;;;6.07;;
49540;SDS011;35432;43.566;1.398;2023-03-23T16:04:17;12.20;;;5.37;;
49540;SDS011;35432;43.566;1.398;2023-03-23T16:06:44;12.32;;;5.80;;
49540;SDS011;35432;43.566;1.398;2023-03-23T16:09:14;15.55;;;5.38;;
49540;SDS011;35432;43.566;1.398;2023-03-23T16:11:41;14.40;;;5.70;;
49540;SDS011;35432;43.566;1.398;2023-03-23T16:14:07;12.77;;;5.90;;
49540;SDS011;35432;43.566;1.398;2023-03-23T16:16:41;13.80;;;5.57;;
49540;SDS011;35432;43.566;1.398;2023-03-23T16:19:10;11.05;;;4.68;;
49540;SDS011;35432;43.566;1.398;2023-03-23T16:21:37;12.52;;;4.82;;
49540;SDS011;35432;43.566;1.398;2023-03-23T16:24:02;17.83;;;5.80;;
49540;SDS011;35432;43.566;1.398;2023-03-23T16:26:27;10.53;;;5.50;;
49540;SDS011;35432;43.566;1.398;2023-03-23T16:28:53;12.07;;;5.07;;
49540;SDS011;35432;43.566;1.398;2023-03-23T16:31:18;13.98;;;5.35;;
49540;SDS011;35432;43.566;1.398;2023-03-23T16:33:46;13.63;;;5.30;;
49540;SDS011;35432;43.566;1.398;2023-03-23T16:36:12;11.25;;;5.05;;
49540;SDS011;35432;43.566;1.398;2023-03-23T16:38:38;13.05;;;5.70;;
49540;SDS011;35432;43.566;1.398;2023-03-23T16:41:07;11.50;;;5.23;;